Terminal Aerodrome Forecast
Issued by NWS

Home | Current Version | Previous Version | Text Only | Print | Product List | Glossary On
Versions: 1 2 3 4 5 6 7 8 9 10 11 12 13 14
000
FTUS46 KPDT 272320
TAFDLS
TAF
KDLS 272320Z 2800/2824 31011KT P6SM FEW060 SCT080
     FM280400 31007KT P6SM SKC
     FM280900 32005KT P6SM SKC
     FM281800 34010KT P6SM FEW060=

USA.gov is the U.S. government's official web portal to all federal, state and local government web resources and services.